sensor_id;sensor_type;location;lat;lon;timestamp;P1;durP1;ratioP1;P2;durP2;ratioP2
10303;SDS011;5197;48.152;8.590;2023-03-16T00:01:07;2.87;;;2.67;;
10303;SDS011;5197;48.152;8.590;2023-03-16T00:03:34;2.77;;;2.57;;
10303;SDS011;5197;48.152;8.590;2023-03-16T00:06:02;3.03;;;2.73;;
10303;SDS011;5197;48.152;8.590;2023-03-16T00:08:29;5.57;;;3.50;;
10303;SDS011;5197;48.152;8.590;2023-03-16T00:10:56;4.40;;;3.07;;
10303;SDS011;5197;48.152;8.590;2023-03-16T00:13:23;4.93;;;3.50;;
10303;SDS011;5197;48.152;8.590;2023-03-16T00:15:57;5.20;;;3.40;;
10303;SDS011;5197;48.152;8.590;2023-03-16T00:18:27;4.47;;;3.10;;
10303;SDS011;5197;48.152;8.590;2023-03-16T00:20:55;3.60;;;2.97;;
10303;SDS011;5197;48.152;8.590;2023-03-16T00:23:24;3.93;;;3.47;;
10303;SDS011;5197;48.152;8.590;2023-03-16T00:25:57;5.53;;;3.57;;
10303;SDS011;5197;48.152;8.590;2023-03-16T00:28:25;3.83;;;3.47;;
10303;SDS011;5197;48.152;8.590;2023-03-16T00:30:53;3.97;;;3.33;;
10303;SDS011;5197;48.152;8.590;2023-03-16T00:33:24;5.40;;;3.30;;
10303;SDS011;5197;48.152;8.590;2023-03-16T00:35:51;4.40;;;3.03;;
10303;SDS011;5197;48.152;8.590;2023-03-16T00:38:30;4.13;;;3.10;;
10303;SDS011;5197;48.152;8.590;2023-03-16T00:41:00;5.20;;;3.30;;
10303;SDS011;5197;48.152;8.590;2023-03-16T00:43:33;5.17;;;3.23;;
10303;SDS011;5197;48.152;8.590;2023-03-16T00:46:07;4.23;;;3.53;;
10303;SDS011;5197;48.152;8.590;2023-03-16T00:48:38;6.00;;;3.07;;
10303;SDS011;5197;48.152;8.590;2023-03-16T00:51:09;5.50;;;3.50;;
10303;SDS011;5197;48.152;8.590;2023-03-16T00:53:41;4.00;;;2.93;;
10303;SDS011;5197;48.152;8.590;2023-03-16T00:56:09;6.33;;;3.57;;
10303;SDS011;5197;48.152;8.590;2023-03-16T00:58:37;3.60;;;3.00;;
10303;SDS011;5197;48.152;8.590;2023-03-16T01:01:06;4.10;;;3.00;;
10303;SDS011;5197;48.152;8.590;2023-03-16T01:03:44;4.37;;;3.30;;
10303;SDS011;5197;48.152;8.590;2023-03-16T01:06:13;4.20;;;3.10;;
10303;SDS011;5197;48.152;8.590;2023-03-16T01:08:42;3.70;;;3.40;;
10303;SDS011;5197;48.152;8.590;2023-03-16T01:11:14;4.30;;;3.37;;
10303;SDS011;5197;48.152;8.590;2023-03-16T01:13:44;3.43;;;3.13;;
10303;SDS011;5197;48.152;8.590;2023-03-16T01:16:15;4.97;;;3.20;;
10303;SDS011;5197;48.152;8.590;2023-03-16T01:18:44;3.33;;;3.10;;
10303;SDS011;5197;48.152;8.590;2023-03-16T01:21:12;3.27;;;2.87;;
10303;SDS011;5197;48.152;8.590;2023-03-16T01:23:41;5.33;;;3.20;;
10303;SDS011;5197;48.152;8.590;2023-03-16T01:26:09;5.37;;;3.23;;
10303;SDS011;5197;48.152;8.590;2023-03-16T01:28:36;5.57;;;3.10;;
10303;SDS011;5197;48.152;8.590;2023-03-16T01:31:05;5.03;;;3.30;;
10303;SDS011;5197;48.152;8.590;2023-03-16T01:33:35;5.47;;;2.90;;
10303;SDS011;5197;48.152;8.590;2023-03-16T01:36:09;4.70;;;3.30;;
10303;SDS011;5197;48.152;8.590;2023-03-16T01:38:38;3.80;;;2.80;;
10303;SDS011;5197;48.152;8.590;2023-03-16T01:41:06;3.53;;;3.20;;
10303;SDS011;5197;48.152;8.590;2023-03-16T01:43:34;6.03;;;3.70;;
10303;SDS011;5197;48.152;8.590;2023-03-16T01:48:41;3.53;;;3.10;;
10303;SDS011;5197;48.152;8.590;2023-03-16T01:51:16;3.63;;;3.13;;
10303;SDS011;5197;48.152;8.590;2023-03-16T01:53:49;4.27;;;3.47;;
10303;SDS011;5197;48.152;8.590;2023-03-16T01:56:24;3.73;;;2.90;;
10303;SDS011;5197;48.152;8.590;2023-03-16T01:58:54;3.37;;;3.07;;
10303;SDS011;5197;48.152;8.590;2023-03-16T02:01:25;4.40;;;3.30;;
10303;SDS011;5197;48.152;8.590;2023-03-16T02:03:54;4.33;;;3.77;;
10303;SDS011;5197;48.152;8.590;2023-03-16T02:06:28;8.27;;;3.77;;
10303;SDS011;5197;48.152;8.590;2023-03-16T02:08:55;5.73;;;3.50;;
10303;SDS011;5197;48.152;8.590;2023-03-16T02:11:23;4.70;;;3.47;;
10303;SDS011;5197;48.152;8.590;2023-03-16T02:13:50;6.87;;;3.93;;
10303;SDS011;5197;48.152;8.590;2023-03-16T02:16:18;6.70;;;3.80;;
10303;SDS011;5197;48.152;8.590;2023-03-16T02:18:48;5.37;;;3.83;;
10303;SDS011;5197;48.152;8.590;2023-03-16T02:24:09;6.23;;;3.83;;
10303;SDS011;5197;48.152;8.590;2023-03-16T02:26:42;6.67;;;3.67;;
10303;SDS011;5197;48.152;8.590;2023-03-16T02:31:55;7.63;;;4.17;;
10303;SDS011;5197;48.152;8.590;2023-03-16T02:34:23;4.77;;;4.00;;
10303;SDS011;5197;48.152;8.590;2023-03-16T02:36:51;9.57;;;4.10;;
10303;SDS011;5197;48.152;8.590;2023-03-16T02:39:19;5.63;;;3.80;;
10303;SDS011;5197;48.152;8.590;2023-03-16T02:41:46;5.23;;;3.93;;
10303;SDS011;5197;48.152;8.590;2023-03-16T02:44:20;5.57;;;3.80;;
10303;SDS011;5197;48.152;8.590;2023-03-16T02:46:51;4.77;;;3.70;;
10303;SDS011;5197;48.152;8.590;2023-03-16T02:51:54;5.23;;;2.70;;
10303;SDS011;5197;48.152;8.590;2023-03-16T02:54:22;5.23;;;3.10;;
10303;SDS011;5197;48.152;8.590;2023-03-16T02:56:50;3.57;;;3.27;;
10303;SDS011;5197;48.152;8.590;2023-03-16T02:59:16;4.97;;;3.30;;
10303;SDS011;5197;48.152;8.590;2023-03-16T03:01:43;4.00;;;3.30;;
10303;SDS011;5197;48.152;8.590;2023-03-16T03:04:10;4.63;;;3.30;;
10303;SDS011;5197;48.152;8.590;2023-03-16T03:06:37;4.57;;;3.37;;
10303;SDS011;5197;48.152;8.590;2023-03-16T03:09:05;5.40;;;3.30;;
10303;SDS011;5197;48.152;8.590;2023-03-16T03:11:32;3.87;;;3.40;;
10303;SDS011;5197;48.152;8.590;2023-03-16T03:13:59;3.40;;;3.10;;
10303;SDS011;5197;48.152;8.590;2023-03-16T03:16:26;3.40;;;2.93;;
10303;SDS011;5197;48.152;8.590;2023-03-16T03:18:53;6.77;;;3.40;;
10303;SDS011;5197;48.152;8.590;2023-03-16T03:21:19;3.63;;;2.97;;
10303;SDS011;5197;48.152;8.590;2023-03-16T03:23:47;5.47;;;3.00;;
10303;SDS011;5197;48.152;8.590;2023-03-16T03:26:14;3.70;;;2.80;;
10303;SDS011;5197;48.152;8.590;2023-03-16T03:28:42;3.47;;;3.17;;
10303;SDS011;5197;48.152;8.590;2023-03-16T03:31:17;4.20;;;2.93;;
10303;SDS011;5197;48.152;8.590;2023-03-16T03:33:45;3.23;;;2.90;;
10303;SDS011;5197;48.152;8.590;2023-03-16T03:36:12;3.03;;;2.80;;
10303;SDS011;5197;48.152;8.590;2023-03-16T03:38:39;3.03;;;2.50;;
10303;SDS011;5197;48.152;8.590;2023-03-16T03:41:06;4.60;;;2.93;;
10303;SDS011;5197;48.152;8.590;2023-03-16T03:43:33;3.50;;;3.20;;
10303;SDS011;5197;48.152;8.590;2023-03-16T03:46:01;4.50;;;2.90;;
10303;SDS011;5197;48.152;8.590;2023-03-16T03:48:29;5.57;;;3.27;;
10303;SDS011;5197;48.152;8.590;2023-03-16T03:50:56;4.03;;;3.40;;
10303;SDS011;5197;48.152;8.590;2023-03-16T03:53:22;3.20;;;2.90;;
10303;SDS011;5197;48.152;8.590;2023-03-16T03:55:49;4.37;;;3.30;;
10303;SDS011;5197;48.152;8.590;2023-03-16T03:58:16;3.37;;;3.07;;
10303;SDS011;5197;48.152;8.590;2023-03-16T04:00:43;4.10;;;3.63;;
10303;SDS011;5197;48.152;8.590;2023-03-16T04:03:10;4.27;;;3.33;;
10303;SDS011;5197;48.152;8.590;2023-03-16T04:05:37;4.50;;;3.73;;
10303;SDS011;5197;48.152;8.590;2023-03-16T04:08:04;5.47;;;3.30;;
10303;SDS011;5197;48.152;8.590;2023-03-16T04:10:31;5.17;;;3.40;;
10303;SDS011;5197;48.152;8.590;2023-03-16T04:12:58;6.57;;;3.37;;
10303;SDS011;5197;48.152;8.590;2023-03-16T04:15:25;3.43;;;3.13;;
10303;SDS011;5197;48.152;8.590;2023-03-16T04:17:52;5.43;;;3.67;;
10303;SDS011;5197;48.152;8.590;2023-03-16T04:20:19;3.90;;;3.23;;
10303;SDS011;5197;48.152;8.590;2023-03-16T04:22:48;5.93;;;3.50;;
10303;SDS011;5197;48.152;8.590;2023-03-16T04:25:16;4.00;;;3.60;;
10303;SDS011;5197;48.152;8.590;2023-03-16T04:27:43;5.77;;;4.03;;
10303;SDS011;5197;48.152;8.590;2023-03-16T04:30:12;4.60;;;4.03;;
10303;SDS011;5197;48.152;8.590;2023-03-16T04:32:40;6.93;;;3.90;;
10303;SDS011;5197;48.152;8.590;2023-03-16T04:35:07;3.93;;;3.53;;
10303;SDS011;5197;48.152;8.590;2023-03-16T04:37:35;5.20;;;3.77;;
10303;SDS011;5197;48.152;8.590;2023-03-16T04:40:02;7.40;;;3.77;;
10303;SDS011;5197;48.152;8.590;2023-03-16T04:42:41;5.87;;;4.30;;
10303;SDS011;5197;48.152;8.590;2023-03-16T04:45:12;6.07;;;4.67;;
10303;SDS011;5197;48.152;8.590;2023-03-16T04:47:40;7.83;;;5.63;;
10303;SDS011;5197;48.152;8.590;2023-03-16T04:50:07;13.00;;;5.93;;
10303;SDS011;5197;48.152;8.590;2023-03-16T04:52:34;6.77;;;5.20;;
10303;SDS011;5197;48.152;8.590;2023-03-16T04:55:01;7.20;;;4.23;;
10303;SDS011;5197;48.152;8.590;2023-03-16T04:57:28;10.43;;;5.67;;
10303;SDS011;5197;48.152;8.590;2023-03-16T04:59:55;8.57;;;6.33;;
10303;SDS011;5197;48.152;8.590;2023-03-16T05:02:22;13.33;;;5.57;;
10303;SDS011;5197;48.152;8.590;2023-03-16T05:04:49;10.40;;;5.83;;
10303;SDS011;5197;48.152;8.590;2023-03-16T05:07:16;10.30;;;5.70;;
10303;SDS011;5197;48.152;8.590;2023-03-16T05:09:43;10.60;;;6.17;;
10303;SDS011;5197;48.152;8.590;2023-03-16T05:12:10;8.00;;;4.63;;
10303;SDS011;5197;48.152;8.590;2023-03-16T05:14:38;7.53;;;4.47;;
10303;SDS011;5197;48.152;8.590;2023-03-16T05:17:04;7.33;;;4.53;;
10303;SDS011;5197;48.152;8.590;2023-03-16T05:19:31;7.40;;;4.57;;
10303;SDS011;5197;48.152;8.590;2023-03-16T05:21:59;13.53;;;5.47;;
10303;SDS011;5197;48.152;8.590;2023-03-16T05:24:25;5.87;;;4.80;;
10303;SDS011;5197;48.152;8.590;2023-03-16T05:26:52;7.73;;;5.50;;
10303;SDS011;5197;48.152;8.590;2023-03-16T05:29:38;7.00;;;4.87;;
10303;SDS011;5197;48.152;8.590;2023-03-16T05:32:25;9.77;;;6.43;;
10303;SDS011;5197;48.152;8.590;2023-03-16T05:35:13;5.80;;;4.60;;
10303;SDS011;5197;48.152;8.590;2023-03-16T05:37:40;4.30;;;3.67;;
10303;SDS011;5197;48.152;8.590;2023-03-16T05:40:09;8.07;;;4.30;;
10303;SDS011;5197;48.152;8.590;2023-03-16T05:42:46;6.90;;;4.27;;
10303;SDS011;5197;48.152;8.590;2023-03-16T05:45:15;6.23;;;3.83;;
10303;SDS011;5197;48.152;8.590;2023-03-16T05:47:42;5.60;;;3.93;;
10303;SDS011;5197;48.152;8.590;2023-03-16T05:50:10;6.93;;;3.90;;
10303;SDS011;5197;48.152;8.590;2023-03-16T05:52:38;6.37;;;4.23;;
10303;SDS011;5197;48.152;8.590;2023-03-16T05:55:06;4.87;;;4.27;;
10303;SDS011;5197;48.152;8.590;2023-03-16T05:57:34;9.00;;;5.97;;
10303;SDS011;5197;48.152;8.590;2023-03-16T06:00:02;8.97;;;6.40;;
10303;SDS011;5197;48.152;8.590;2023-03-16T06:02:43;7.13;;;5.13;;
10303;SDS011;5197;48.152;8.590;2023-03-16T06:05:12;7.53;;;4.87;;
10303;SDS011;5197;48.152;8.590;2023-03-16T06:07:40;8.30;;;5.27;;
10303;SDS011;5197;48.152;8.590;2023-03-16T06:10:07;9.13;;;4.83;;
10303;SDS011;5197;48.152;8.590;2023-03-16T06:12:35;7.07;;;4.03;;
10303;SDS011;5197;48.152;8.590;2023-03-16T06:15:02;6.70;;;4.43;;
10303;SDS011;5197;48.152;8.590;2023-03-16T06:17:34;6.93;;;4.97;;
10303;SDS011;5197;48.152;8.590;2023-03-16T06:20:02;7.30;;;4.90;;
10303;SDS011;5197;48.152;8.590;2023-03-16T06:22:39;4.97;;;3.93;;
10303;SDS011;5197;48.152;8.590;2023-03-16T06:25:07;4.03;;;3.57;;
10303;SDS011;5197;48.152;8.590;2023-03-16T06:27:35;8.97;;;3.90;;
10303;SDS011;5197;48.152;8.590;2023-03-16T06:30:03;5.60;;;3.90;;
10303;SDS011;5197;48.152;8.590;2023-03-16T06:32:32;4.50;;;4.10;;
10303;SDS011;5197;48.152;8.590;2023-03-16T06:34:59;6.50;;;3.77;;
10303;SDS011;5197;48.152;8.590;2023-03-16T06:37:27;4.57;;;3.90;;
10303;SDS011;5197;48.152;8.590;2023-03-16T06:39:55;4.37;;;3.97;;
10303;SDS011;5197;48.152;8.590;2023-03-16T06:42:23;4.87;;;4.07;;
10303;SDS011;5197;48.152;8.590;2023-03-16T06:44:50;8.47;;;4.23;;
10303;SDS011;5197;48.152;8.590;2023-03-16T06:47:18;5.80;;;4.03;;
10303;SDS011;5197;48.152;8.590;2023-03-16T06:49:45;5.20;;;4.43;;
10303;SDS011;5197;48.152;8.590;2023-03-16T06:52:12;4.57;;;3.67;;
10303;SDS011;5197;48.152;8.590;2023-03-16T06:54:40;4.57;;;3.27;;
10303;SDS011;5197;48.152;8.590;2023-03-16T06:57:07;3.00;;;2.70;;
10303;SDS011;5197;48.152;8.590;2023-03-16T06:59:34;4.10;;;2.93;;
10303;SDS011;5197;48.152;8.590;2023-03-16T07:02:01;3.40;;;2.67;;
10303;SDS011;5197;48.152;8.590;2023-03-16T07:04:28;3.60;;;2.90;;
10303;SDS011;5197;48.152;8.590;2023-03-16T07:06:55;3.57;;;2.77;;
10303;SDS011;5197;48.152;8.590;2023-03-16T07:09:21;2.70;;;2.50;;
10303;SDS011;5197;48.152;8.590;2023-03-16T07:11:48;2.70;;;2.43;;
10303;SDS011;5197;48.152;8.590;2023-03-16T07:14:16;2.53;;;2.33;;
10303;SDS011;5197;48.152;8.590;2023-03-16T07:16:45;2.40;;;2.20;;
10303;SDS011;5197;48.152;8.590;2023-03-16T07:19:12;2.53;;;2.33;;
10303;SDS011;5197;48.152;8.590;2023-03-16T07:21:38;5.87;;;2.80;;
10303;SDS011;5197;48.152;8.590;2023-03-16T07:24:07;3.10;;;2.60;;
10303;SDS011;5197;48.152;8.590;2023-03-16T07:26:35;4.93;;;2.50;;
10303;SDS011;5197;48.152;8.590;2023-03-16T07:29:02;2.93;;;2.57;;
10303;SDS011;5197;48.152;8.590;2023-03-16T07:31:32;4.23;;;2.80;;
10303;SDS011;5197;48.152;8.590;2023-03-16T07:34:00;4.07;;;2.67;;
10303;SDS011;5197;48.152;8.590;2023-03-16T07:36:29;20.60;;;9.50;;
10303;SDS011;5197;48.152;8.590;2023-03-16T07:38:57;24.93;;;12.17;;
10303;SDS011;5197;48.152;8.590;2023-03-16T07:41:24;18.03;;;8.20;;
10303;SDS011;5197;48.152;8.590;2023-03-16T07:43:51;23.37;;;10.63;;
10303;SDS011;5197;48.152;8.590;2023-03-16T07:46:18;6.67;;;4.47;;
10303;SDS011;5197;48.152;8.590;2023-03-16T07:48:45;2.70;;;2.50;;
10303;SDS011;5197;48.152;8.590;2023-03-16T07:51:12;2.83;;;2.60;;
10303;SDS011;5197;48.152;8.590;2023-03-16T07:53:39;4.43;;;3.57;;
10303;SDS011;5197;48.152;8.590;2023-03-16T07:56:07;3.23;;;2.80;;
10303;SDS011;5197;48.152;8.590;2023-03-16T07:58:34;3.10;;;2.80;;
10303;SDS011;5197;48.152;8.590;2023-03-16T08:01:02;4.63;;;2.90;;
10303;SDS011;5197;48.152;8.590;2023-03-16T08:03:29;5.40;;;2.60;;
10303;SDS011;5197;48.152;8.590;2023-03-16T08:05:57;2.20;;;2.00;;
10303;SDS011;5197;48.152;8.590;2023-03-16T08:08:24;3.73;;;2.50;;
10303;SDS011;5197;48.152;8.590;2023-03-16T08:10:51;5.77;;;2.33;;
10303;SDS011;5197;48.152;8.590;2023-03-16T08:13:20;8.80;;;3.27;;
10303;SDS011;5197;48.152;8.590;2023-03-16T08:15:48;3.60;;;2.43;;
10303;SDS011;5197;48.152;8.590;2023-03-16T08:18:24;7.33;;;2.97;;
10303;SDS011;5197;48.152;8.590;2023-03-16T08:20:51;3.33;;;2.50;;
10303;SDS011;5197;48.152;8.590;2023-03-16T08:23:19;4.10;;;2.87;;
10303;SDS011;5197;48.152;8.590;2023-03-16T08:25:46;3.73;;;2.40;;
10303;SDS011;5197;48.152;8.590;2023-03-16T08:28:16;3.47;;;2.70;;
10303;SDS011;5197;48.152;8.590;2023-03-16T08:30:47;5.20;;;2.67;;
10303;SDS011;5197;48.152;8.590;2023-03-16T08:33:16;9.10;;;2.83;;
10303;SDS011;5197;48.152;8.590;2023-03-16T08:35:48;2.87;;;2.60;;
10303;SDS011;5197;48.152;8.590;2023-03-16T08:38:16;2.43;;;2.10;;
10303;SDS011;5197;48.152;8.590;2023-03-16T08:40:44;2.22;;;2.03;;
10303;SDS011;5197;48.152;8.590;2023-03-16T08:43:14;2.35;;;2.15;;
10303;SDS011;5197;48.152;8.590;2023-03-16T08:45:45;8.48;;;2.20;;
10303;SDS011;5197;48.152;8.590;2023-03-16T08:48:13;3.70;;;1.90;;
10303;SDS011;5197;48.152;8.590;2023-03-16T08:50:41;2.23;;;1.90;;
10303;SDS011;5197;48.152;8.590;2023-03-16T08:53:10;2.50;;;1.97;;
10303;SDS011;5197;48.152;8.590;2023-03-16T08:55:39;2.10;;;1.85;;
10303;SDS011;5197;48.152;8.590;2023-03-16T08:58:09;2.17;;;1.75;;
10303;SDS011;5197;48.152;8.590;2023-03-16T09:00:37;3.27;;;1.60;;
10303;SDS011;5197;48.152;8.590;2023-03-16T09:03:05;3.73;;;1.57;;
10303;SDS011;5197;48.152;8.590;2023-03-16T09:05:33;2.37;;;1.63;;
10303;SDS011;5197;48.152;8.590;2023-03-16T09:08:00;5.17;;;1.70;;
10303;SDS011;5197;48.152;8.590;2023-03-16T09:10:29;1.00;;;1.00;;
10303;SDS011;5197;48.152;8.590;2023-03-16T09:12:57;1.53;;;1.40;;
10303;SDS011;5197;48.152;8.590;2023-03-16T09:15:24;2.70;;;1.30;;
10303;SDS011;5197;48.152;8.590;2023-03-16T09:17:51;1.70;;;1.60;;
10303;SDS011;5197;48.152;8.590;2023-03-16T09:20:19;18.73;;;2.90;;
10303;SDS011;5197;48.152;8.590;2023-03-16T09:22:51;2.63;;;1.87;;
10303;SDS011;5197;48.152;8.590;2023-03-16T09:25:19;59.47;;;5.23;;
10303;SDS011;5197;48.152;8.590;2023-03-16T09:27:46;3.00;;;1.90;;
10303;SDS011;5197;48.152;8.590;2023-03-16T09:30:13;1.37;;;1.27;;
10303;SDS011;5197;48.152;8.590;2023-03-16T09:32:42;5.57;;;1.47;;
10303;SDS011;5197;48.152;8.590;2023-03-16T09:35:09;1.07;;;0.93;;
10303;SDS011;5197;48.152;8.590;2023-03-16T09:37:37;2.43;;;1.23;;
10303;SDS011;5197;48.152;8.590;2023-03-16T09:40:18;1.77;;;1.27;;
10303;SDS011;5197;48.152;8.590;2023-03-16T09:42:52;2.27;;;1.30;;
10303;SDS011;5197;48.152;8.590;2023-03-16T09:48:17;1.87;;;1.50;;
10303;SDS011;5197;48.152;8.590;2023-03-16T09:50:46;3.87;;;1.27;;
10303;SDS011;5197;48.152;8.590;2023-03-16T09:53:21;10.20;;;1.87;;
10303;SDS011;5197;48.152;8.590;2023-03-16T09:55:54;11.60;;;2.10;;
10303;SDS011;5197;48.152;8.590;2023-03-16T09:58:23;1.50;;;1.40;;
10303;SDS011;5197;48.152;8.590;2023-03-16T10:06:54;3.20;;;1.50;;
10303;SDS011;5197;48.152;8.590;2023-03-16T10:09:54;1.17;;;1.17;;
10303;SDS011;5197;48.152;8.590;2023-03-16T10:12:24;3.73;;;1.43;;
10303;SDS011;5197;48.152;8.590;2023-03-16T10:17:42;1.50;;;1.40;;
10303;SDS011;5197;48.152;8.590;2023-03-16T10:20:17;1.87;;;1.47;;
10303;SDS011;5197;48.152;8.590;2023-03-16T10:22:50;1.63;;;1.50;;
10303;SDS011;5197;48.152;8.590;2023-03-16T10:25:22;9.23;;;1.80;;
10303;SDS011;5197;48.152;8.590;2023-03-16T10:28:01;4.23;;;1.43;;
10303;SDS011;5197;48.152;8.590;2023-03-16T10:30:32;6.53;;;1.70;;
10303;SDS011;5197;48.152;8.590;2023-03-16T10:33:04;1.67;;;1.53;;
10303;SDS011;5197;48.152;8.590;2023-03-16T10:38:49;1.90;;;1.70;;
10303;SDS011;5197;48.152;8.590;2023-03-16T10:41:22;1.73;;;1.20;;
10303;SDS011;5197;48.152;8.590;2023-03-16T10:43:59;1.90;;;1.47;;
10303;SDS011;5197;48.152;8.590;2023-03-16T10:46:45;3.47;;;1.73;;
10303;SDS011;5197;48.152;8.590;2023-03-16T10:49:57;9.83;;;1.83;;
10303;SDS011;5197;48.152;8.590;2023-03-16T11:00:07;2.53;;;1.63;;
10303;SDS011;5197;48.152;8.590;2023-03-16T11:02:39;1.00;;;1.00;;
10303;SDS011;5197;48.152;8.590;2023-03-16T11:05:10;1.60;;;1.30;;
10303;SDS011;5197;48.152;8.590;2023-03-16T11:07:47;1.00;;;0.90;;
10303;SDS011;5197;48.152;8.590;2023-03-16T11:10:27;2.23;;;1.57;;
10303;SDS011;5197;48.152;8.590;2023-03-16T11:13:12;1.13;;;1.10;;
10303;SDS011;5197;48.152;8.590;2023-03-16T11:18:21;1.10;;;1.10;;
10303;SDS011;5197;48.152;8.590;2023-03-16T11:20:50;1.90;;;1.60;;
10303;SDS011;5197;48.152;8.590;2023-03-16T11:23:17;4.07;;;1.00;;
10303;SDS011;5197;48.152;8.590;2023-03-16T11:25:50;1.17;;;1.17;;
10303;SDS011;5197;48.152;8.590;2023-03-16T11:28:25;1.20;;;1.20;;
10303;SDS011;5197;48.152;8.590;2023-03-16T11:31:05;1.37;;;1.20;;
10303;SDS011;5197;48.152;8.590;2023-03-16T11:33:47;2.07;;;1.37;;
10303;SDS011;5197;48.152;8.590;2023-03-16T11:36:27;1.03;;;0.93;;
10303;SDS011;5197;48.152;8.590;2023-03-16T11:39:09;1.10;;;1.10;;
10303;SDS011;5197;48.152;8.590;2023-03-16T11:50:17;1.40;;;1.30;;
10303;SDS011;5197;48.152;8.590;2023-03-16T11:55:39;1.57;;;1.40;;
10303;SDS011;5197;48.152;8.590;2023-03-16T12:01:39;2.20;;;1.30;;
10303;SDS011;5197;48.152;8.590;2023-03-16T12:10:13;2.37;;;1.30;;
10303;SDS011;5197;48.152;8.590;2023-03-16T12:12:58;2.00;;;1.57;;
10303;SDS011;5197;48.152;8.590;2023-03-16T12:18:37;2.40;;;1.50;;
10303;SDS011;5197;48.152;8.590;2023-03-16T12:21:16;1.87;;;1.70;;
10303;SDS011;5197;48.152;8.590;2023-03-16T12:24:03;1.20;;;1.10;;
10303;SDS011;5197;48.152;8.590;2023-03-16T12:26:38;1.30;;;1.20;;
10303;SDS011;5197;48.152;8.590;2023-03-16T12:29:17;1.47;;;1.37;;
10303;SDS011;5197;48.152;8.590;2023-03-16T12:32:09;1.67;;;1.27;;
10303;SDS011;5197;48.152;8.590;2023-03-16T12:34:48;1.63;;;1.40;;
10303;SDS011;5197;48.152;8.590;2023-03-16T12:37:27;1.07;;;1.07;;
10303;SDS011;5197;48.152;8.590;2023-03-16T12:40:53;1.07;;;0.97;;
10303;SDS011;5197;48.152;8.590;2023-03-16T12:45:50;1.30;;;1.20;;
10303;SDS011;5197;48.152;8.590;2023-03-16T12:48:34;1.57;;;1.30;;
10303;SDS011;5197;48.152;8.590;2023-03-16T12:51:08;1.40;;;1.30;;
10303;SDS011;5197;48.152;8.590;2023-03-16T12:56:09;1.77;;;1.50;;
10303;SDS011;5197;48.152;8.590;2023-03-16T12:58:42;2.63;;;1.27;;
10303;SDS011;5197;48.152;8.590;2023-03-16T13:01:12;1.63;;;1.53;;
10303;SDS011;5197;48.152;8.590;2023-03-16T13:03:42;2.10;;;1.77;;
10303;SDS011;5197;48.152;8.590;2023-03-16T13:06:17;1.70;;;1.60;;
10303;SDS011;5197;48.152;8.590;2023-03-16T13:08:48;2.30;;;1.30;;
10303;SDS011;5197;48.152;8.590;2023-03-16T13:11:25;1.23;;;1.17;;
10303;SDS011;5197;48.152;8.590;2023-03-16T13:16:27;1.47;;;1.10;;
10303;SDS011;5197;48.152;8.590;2023-03-16T13:18:57;1.50;;;1.23;;
10303;SDS011;5197;48.152;8.590;2023-03-16T13:21:45;2.90;;;1.00;;
10303;SDS011;5197;48.152;8.590;2023-03-16T13:26:57;1.73;;;1.63;;
10303;SDS011;5197;48.152;8.590;2023-03-16T13:30:21;1.40;;;1.30;;
10303;SDS011;5197;48.152;8.590;2023-03-16T13:32:45;1.10;;;1.10;;
10303;SDS011;5197;48.152;8.590;2023-03-16T13:35:13;1.17;;;1.07;;
10303;SDS011;5197;48.152;8.590;2023-03-16T13:37:42;1.17;;;1.07;;
10303;SDS011;5197;48.152;8.590;2023-03-16T13:40:20;1.40;;;1.30;;
10303;SDS011;5197;48.152;8.590;2023-03-16T13:42:49;1.00;;;1.00;;
10303;SDS011;5197;48.152;8.590;2023-03-16T13:45:19;1.20;;;1.20;;
10303;SDS011;5197;48.152;8.590;2023-03-16T13:47:49;1.30;;;1.23;;
10303;SDS011;5197;48.152;8.590;2023-03-16T13:50:16;4.03;;;1.40;;
10303;SDS011;5197;48.152;8.590;2023-03-16T13:53:09;1.13;;;1.07;;
10303;SDS011;5197;48.152;8.590;2023-03-16T13:55:39;1.23;;;1.00;;
10303;SDS011;5197;48.152;8.590;2023-03-16T13:58:19;1.70;;;1.30;;
10303;SDS011;5197;48.152;8.590;2023-03-16T14:01:01;0.97;;;0.97;;
10303;SDS011;5197;48.152;8.590;2023-03-16T14:03:38;1.10;;;1.10;;
10303;SDS011;5197;48.152;8.590;2023-03-16T14:06:21;1.97;;;1.60;;
10303;SDS011;5197;48.152;8.590;2023-03-16T14:08:51;1.67;;;1.57;;
10303;SDS011;5197;48.152;8.590;2023-03-16T14:11:21;1.67;;;1.50;;
10303;SDS011;5197;48.152;8.590;2023-03-16T14:13:52;1.33;;;1.20;;
10303;SDS011;5197;48.152;8.590;2023-03-16T14:16:21;1.47;;;1.37;;
10303;SDS011;5197;48.152;8.590;2023-03-16T14:18:53;1.53;;;1.30;;
10303;SDS011;5197;48.152;8.590;2023-03-16T14:21:29;1.80;;;1.33;;
10303;SDS011;5197;48.152;8.590;2023-03-16T14:24:00;1.77;;;1.13;;
10303;SDS011;5197;48.152;8.590;2023-03-16T14:26:40;1.70;;;1.27;;
10303;SDS011;5197;48.152;8.590;2023-03-16T14:29:28;1.13;;;1.13;;
10303;SDS011;5197;48.152;8.590;2023-03-16T14:31:56;1.20;;;1.20;;
10303;SDS011;5197;48.152;8.590;2023-03-16T14:34:29;1.30;;;1.20;;
10303;SDS011;5197;48.152;8.590;2023-03-16T14:37:12;1.60;;;1.50;;
10303;SDS011;5197;48.152;8.590;2023-03-16T14:39:41;3.77;;;1.40;;
10303;SDS011;5197;48.152;8.590;2023-03-16T14:42:13;2.43;;;1.40;;
10303;SDS011;5197;48.152;8.590;2023-03-16T14:44:43;2.20;;;2.00;;
10303;SDS011;5197;48.152;8.590;2023-03-16T14:47:14;1.83;;;1.50;;
10303;SDS011;5197;48.152;8.590;2023-03-16T14:49:56;2.23;;;1.70;;
10303;SDS011;5197;48.152;8.590;2023-03-16T14:52:27;1.57;;;1.47;;
10303;SDS011;5197;48.152;8.590;2023-03-16T14:54:59;1.47;;;1.37;;
10303;SDS011;5197;48.152;8.590;2023-03-16T14:57:28;1.97;;;1.23;;
10303;SDS011;5197;48.152;8.590;2023-03-16T14:59:55;1.50;;;1.40;;
10303;SDS011;5197;48.152;8.590;2023-03-16T15:04:58;1.50;;;1.27;;
10303;SDS011;5197;48.152;8.590;2023-03-16T15:07:31;1.40;;;1.40;;
10303;SDS011;5197;48.152;8.590;2023-03-16T15:10:02;1.30;;;1.20;;
10303;SDS011;5197;48.152;8.590;2023-03-16T15:12:40;1.20;;;1.20;;
10303;SDS011;5197;48.152;8.590;2023-03-16T15:15:17;1.27;;;1.17;;
10303;SDS011;5197;48.152;8.590;2023-03-16T15:17:45;1.77;;;1.53;;
10303;SDS011;5197;48.152;8.590;2023-03-16T15:20:17;2.87;;;1.17;;
10303;SDS011;5197;48.152;8.590;2023-03-16T15:22:49;2.97;;;1.27;;
10303;SDS011;5197;48.152;8.590;2023-03-16T15:30:38;1.43;;;1.33;;
10303;SDS011;5197;48.152;8.590;2023-03-16T15:33:07;1.20;;;1.20;;
10303;SDS011;5197;48.152;8.590;2023-03-16T15:35:35;4.10;;;1.60;;
10303;SDS011;5197;48.152;8.590;2023-03-16T15:38:04;6.63;;;1.40;;
10303;SDS011;5197;48.152;8.590;2023-03-16T15:40:36;1.60;;;1.50;;
10303;SDS011;5197;48.152;8.590;2023-03-16T15:43:10;1.60;;;1.50;;
10303;SDS011;5197;48.152;8.590;2023-03-16T15:45:37;2.07;;;1.33;;
10303;SDS011;5197;48.152;8.590;2023-03-16T15:48:05;1.67;;;1.50;;
10303;SDS011;5197;48.152;8.590;2023-03-16T15:50:35;1.67;;;1.57;;
10303;SDS011;5197;48.152;8.590;2023-03-16T15:53:05;1.23;;;1.17;;
10303;SDS011;5197;48.152;8.590;2023-03-16T15:55:56;1.30;;;1.20;;
10303;SDS011;5197;48.152;8.590;2023-03-16T15:58:28;4.70;;;1.30;;
10303;SDS011;5197;48.152;8.590;2023-03-16T16:00:57;1.70;;;1.10;;
10303;SDS011;5197;48.152;8.590;2023-03-16T16:03:25;2.83;;;1.50;;
10303;SDS011;5197;48.152;8.590;2023-03-16T16:05:53;3.40;;;1.60;;
10303;SDS011;5197;48.152;8.590;2023-03-16T16:08:20;1.60;;;1.50;;
10303;SDS011;5197;48.152;8.590;2023-03-16T16:10:47;1.43;;;1.33;;
10303;SDS011;5197;48.152;8.590;2023-03-16T16:13:21;2.23;;;1.40;;
10303;SDS011;5197;48.152;8.590;2023-03-16T16:16:03;6.93;;;1.70;;
10303;SDS011;5197;48.152;8.590;2023-03-16T16:18:30;4.30;;;2.03;;
10303;SDS011;5197;48.152;8.590;2023-03-16T16:21:02;2.73;;;1.90;;
10303;SDS011;5197;48.152;8.590;2023-03-16T16:23:30;2.10;;;1.50;;
10303;SDS011;5197;48.152;8.590;2023-03-16T16:26:02;2.40;;;1.93;;
10303;SDS011;5197;48.152;8.590;2023-03-16T16:28:33;3.47;;;2.67;;
10303;SDS011;5197;48.152;8.590;2023-03-16T16:31:00;3.87;;;2.43;;
10303;SDS011;5197;48.152;8.590;2023-03-16T16:33:28;4.70;;;2.20;;
10303;SDS011;5197;48.152;8.590;2023-03-16T16:35:58;1.63;;;1.53;;
10303;SDS011;5197;48.152;8.590;2023-03-16T16:38:26;2.60;;;1.60;;
10303;SDS011;5197;48.152;8.590;2023-03-16T16:40:54;6.30;;;1.77;;